createdAt,value
2018-11-26T00:00:20.150Z,980.47
2018-11-26T00:01:20.140Z,980.41
2018-11-26T00:02:20.131Z,980.39
2018-11-26T00:03:20.123Z,980.45
2018-11-26T00:04:20.122Z,980.39
2018-11-26T00:05:20.109Z,980.44
2018-11-26T00:06:20.102Z,980.43
2018-11-26T00:07:20.091Z,980.46
2018-11-26T00:08:20.082Z,980.43
2018-11-26T00:09:20.077Z,980.42
2018-11-26T00:10:20.068Z,980.43
2018-11-26T00:11:20.068Z,980.43
2018-11-26T00:12:20.054Z,980.48
2018-11-26T00:13:20.054Z,980.51
2018-11-26T00:14:20.040Z,980.45
2018-11-26T00:15:20.026Z,980.38
2018-11-26T00:16:20.021Z,980.45
2018-11-26T00:17:20.012Z,980.46
2018-11-26T00:18:20.005Z,980.4
2018-11-26T00:19:20.004Z,980.4
2018-11-26T00:20:19.997Z,980.39
2018-11-26T00:21:19.992Z,980.37
2018-11-26T00:22:19.980Z,980.35
2018-11-26T00:23:20.015Z,980.32
2018-11-26T00:24:19.954Z,980.34
2018-11-26T00:25:19.944Z,980.33
2018-11-26T00:26:19.937Z,980.33
2018-11-26T00:27:19.930Z,980.32
2018-11-26T00:28:19.921Z,980.36
2018-11-26T00:29:19.913Z,980.38
2018-11-26T00:30:19.903Z,980.33
2018-11-26T00:31:19.894Z,980.35
2018-11-26T00:32:19.886Z,980.34
2018-11-26T00:33:19.888Z,980.38
2018-11-26T00:34:19.878Z,980.36
2018-11-26T00:35:19.867Z,980.39
2018-11-26T00:36:19.855Z,980.41
2018-11-26T00:37:19.847Z,980.39
2018-11-26T00:38:19.841Z,980.37
2018-11-26T00:39:19.828Z,980.38
2018-11-26T00:40:19.823Z,980.32
2018-11-26T00:41:19.814Z,980.31
2018-11-26T00:42:19.805Z,980.31
2018-11-26T00:43:19.804Z,980.35
2018-11-26T00:44:19.786Z,980.27
2018-11-26T00:45:19.785Z,980.29
2018-11-26T00:46:20.755Z,980.29
2018-11-26T00:47:19.765Z,980.24
2018-11-26T00:48:19.753Z,980.3
2018-11-26T00:49:19.748Z,980.27
2018-11-26T00:50:19.741Z,980.27
2018-11-26T00:51:19.739Z,980.26
2018-11-26T00:52:19.729Z,980.25
2018-11-26T00:53:19.713Z,980.24
2018-11-26T00:54:19.706Z,980.29
2018-11-26T00:55:19.701Z,980.26
2018-11-26T00:56:19.693Z,980.26
2018-11-26T00:57:19.684Z,980.23
2018-11-26T00:58:19.675Z,980.19
2018-11-26T00:59:19.677Z,980.19
2018-11-26T01:00:19.686Z,980.15
2018-11-26T01:01:19.654Z,980.19
2018-11-26T01:02:19.652Z,980.17
2018-11-26T01:03:19.638Z,980.14
2018-11-26T01:04:19.634Z,980.18
2018-11-26T01:05:19.632Z,980.15
2018-11-26T01:06:19.625Z,980.19
2018-11-26T01:07:19.623Z,980.18
2018-11-26T01:08:19.610Z,980.17
2018-11-26T01:09:19.589Z,980.1
2018-11-26T01:10:19.594Z,980.11
2018-11-26T01:11:19.579Z,980.13
2018-11-26T01:12:19.558Z,980.14
2018-11-26T01:13:19.566Z,980.16
2018-11-26T01:14:19.542Z,980.12
2018-11-26T01:15:19.559Z,980.13
2018-11-26T01:16:19.531Z,980.12
2018-11-26T01:17:19.533Z,980.08
2018-11-26T01:18:19.515Z,980.09
2018-11-26T01:19:19.511Z,980.06
2018-11-26T01:20:19.523Z,980.08
2018-11-26T01:21:19.498Z,980.01
2018-11-26T01:22:19.498Z,980
2018-11-26T01:23:19.475Z,980.01
2018-11-26T01:24:19.472Z,979.99
2018-11-26T01:25:19.456Z,980
2018-11-26T01:26:19.474Z,980.01
2018-11-26T01:27:19.436Z,980.04
2018-11-26T01:28:19.432Z,980.08
2018-11-26T01:29:19.435Z,980.01
2018-11-26T01:30:19.421Z,980.08
2018-11-26T01:31:19.408Z,980.05
2018-11-26T01:32:19.398Z,980.07
2018-11-26T01:33:19.377Z,980.1
2018-11-26T01:34:19.370Z,980.14
2018-11-26T01:35:19.370Z,980.16
2018-11-26T01:36:19.372Z,980.16
2018-11-26T01:37:19.353Z,980.12
2018-11-26T01:38:19.346Z,980.23
2018-11-26T01:39:19.322Z,980.23
2018-11-26T01:40:19.333Z,980.25
2018-11-26T01:41:19.335Z,980.2
2018-11-26T01:42:19.340Z,980.21
2018-11-26T01:43:19.288Z,980.13
2018-11-26T01:44:19.276Z,980.18
2018-11-26T01:45:19.270Z,980.18
2018-11-26T01:46:19.281Z,980.16
2018-11-26T01:47:19.252Z,980.17
2018-11-26T01:48:19.243Z,980.16
2018-11-26T01:49:19.239Z,980.2
2018-11-26T01:50:19.227Z,980.14
2018-11-26T01:51:19.220Z,980.14
2018-11-26T01:52:19.211Z,980.16
2018-11-26T01:53:19.204Z,980.16
2018-11-26T01:54:19.193Z,980.17
2018-11-26T01:55:19.186Z,980.2
2018-11-26T01:56:19.185Z,980.17
2018-11-26T01:57:19.168Z,980.2
2018-11-26T01:58:19.163Z,980.15
2018-11-26T01:59:19.153Z,980.14
2018-11-26T02:00:19.142Z,980.13
2018-11-26T02:01:19.135Z,980.13
2018-11-26T02:02:19.126Z,980.11
2018-11-26T02:03:19.121Z,980.11
2018-11-26T02:04:19.110Z,980.15
2018-11-26T02:05:19.117Z,980.18
2018-11-26T02:06:19.096Z,980.22
2018-11-26T02:07:19.085Z,980.23
2018-11-26T02:08:19.073Z,980.22
2018-11-26T02:09:19.072Z,980.22
2018-11-26T02:10:19.056Z,980.21
2018-11-26T02:11:19.051Z,980.19
2018-11-26T02:12:19.043Z,980.19
2018-11-26T02:13:19.030Z,980.18
2018-11-26T02:14:19.023Z,980.27
2018-11-26T02:15:19.014Z,980.28
2018-11-26T02:16:19.009Z,980.23
2018-11-26T02:17:19.000Z,980.24
2018-11-26T02:18:18.991Z,980.27
2018-11-26T02:19:18.988Z,980.27
2018-11-26T02:20:18.984Z,980.27
2018-11-26T02:21:18.969Z,980.28
2018-11-26T02:22:18.959Z,980.27
2018-11-26T02:23:18.950Z,980.25
2018-11-26T02:24:18.942Z,980.23
2018-11-26T02:25:18.932Z,980.25
2018-11-26T02:26:18.928Z,980.16
2018-11-26T02:27:18.917Z,980.11
2018-11-26T02:28:18.908Z,980.1
2018-11-26T02:29:18.924Z,980.07
2018-11-26T02:30:18.893Z,980.06
2018-11-26T02:31:18.890Z,980.09
2018-11-26T02:32:18.877Z,980.08
2018-11-26T02:33:18.868Z,980.04
2018-11-26T02:34:18.858Z,980.03
2018-11-26T02:35:18.852Z,980.02
2018-11-26T02:36:18.844Z,980.03
2018-11-26T02:37:18.833Z,980.07
2018-11-26T02:38:18.825Z,979.98
2018-11-26T02:39:18.819Z,980.04
2018-11-26T02:40:18.826Z,979.95
2018-11-26T02:41:18.809Z,980.03
2018-11-26T02:42:18.792Z,980.02
2018-11-26T02:43:18.785Z,980
2018-11-26T02:44:18.897Z,980.03
2018-11-26T02:45:18.775Z,980.08
2018-11-26T02:46:18.768Z,980.1
2018-11-26T02:47:18.754Z,980.06
2018-11-26T02:48:18.744Z,980.1
2018-11-26T02:49:18.741Z,980.15
2018-11-26T02:50:18.730Z,980.09
2018-11-26T02:51:18.722Z,980.15
2018-11-26T02:52:18.713Z,980.18
2018-11-26T02:53:18.714Z,980.16
2018-11-26T02:54:18.694Z,980.15
2018-11-26T02:55:18.690Z,980.15
2018-11-26T02:56:18.683Z,980.17
2018-11-26T02:57:18.674Z,980.16
2018-11-26T02:58:18.665Z,980.15
2018-11-26T02:59:18.667Z,980.18
2018-11-26T03:00:18.652Z,980.18
2018-11-26T03:01:18.638Z,980.19
2018-11-26T03:02:18.635Z,980.2
2018-11-26T03:03:18.624Z,980.14
2018-11-26T03:04:18.627Z,980.13
2018-11-26T03:05:18.611Z,980.11
2018-11-26T03:06:18.599Z,980.1
2018-11-26T03:07:18.590Z,980.09
2018-11-26T03:08:18.586Z,980.09
2018-11-26T03:09:18.575Z,980.12
2018-11-26T03:10:18.576Z,980.13
2018-11-26T03:11:18.559Z,980.13
2018-11-26T03:12:18.550Z,980.11
2018-11-26T03:13:18.546Z,980.12
2018-11-26T03:14:18.543Z,980.11
2018-11-26T03:15:18.532Z,980.1
2018-11-26T03:16:18.520Z,980.19
2018-11-26T03:17:18.522Z,980.16
2018-11-26T03:18:18.506Z,980.16
2018-11-26T03:19:18.495Z,980.14
2018-11-26T03:20:18.539Z,980.15
2018-11-26T03:21:18.483Z,980.14
2018-11-26T03:22:18.471Z,980.1
2018-11-26T03:23:18.466Z,980.11
2018-11-26T03:24:18.455Z,980.13
2018-11-26T03:25:18.446Z,980.07
2018-11-26T03:26:18.437Z,980.06
2018-11-26T03:27:18.431Z,980.1
2018-11-26T03:28:18.424Z,980.09
2018-11-26T03:29:18.414Z,980.04
2018-11-26T03:30:18.414Z,980.04
2018-11-26T03:31:18.398Z,980.02
2018-11-26T03:32:18.407Z,980.03
2018-11-26T03:33:18.388Z,979.99
2018-11-26T03:34:18.375Z,979.97
2018-11-26T03:35:18.373Z,979.98
2018-11-26T03:36:18.359Z,979.97
2018-11-26T03:37:18.353Z,979.97
2018-11-26T03:38:18.343Z,979.99
2018-11-26T03:39:18.337Z,980.04
2018-11-26T03:40:18.328Z,980.05
2018-11-26T03:41:18.317Z,980.12
2018-11-26T03:42:18.316Z,980.09
2018-11-26T03:43:18.301Z,980.11
2018-11-26T03:44:18.304Z,980.13
2018-11-26T03:45:18.285Z,980.11
2018-11-26T03:46:18.278Z,980.13
2018-11-26T03:47:18.267Z,980.14
2018-11-26T03:48:18.259Z,980.1
2018-11-26T03:49:18.251Z,980.15
2018-11-26T03:50:18.262Z,980.14
2018-11-26T03:51:18.240Z,980.13
2018-11-26T03:52:18.224Z,980.17
2018-11-26T03:53:18.218Z,980.14
2018-11-26T03:54:18.238Z,980.1
2018-11-26T03:55:18.200Z,980.11
2018-11-26T03:56:18.198Z,980.16
2018-11-26T03:57:18.183Z,980.17
2018-11-26T03:58:18.176Z,980.18
2018-11-26T03:59:18.164Z,980.13
2018-11-26T04:00:18.158Z,980.08
2018-11-26T04:01:18.152Z,980.14
2018-11-26T04:02:18.148Z,980.12
2018-11-26T04:03:18.133Z,980.09
2018-11-26T04:04:18.122Z,980.12
2018-11-26T04:05:18.114Z,980.15
2018-11-26T04:06:18.104Z,980.14
2018-11-26T04:07:18.098Z,980.1
2018-11-26T04:08:18.090Z,980.06
2018-11-26T04:09:18.079Z,980.09
2018-11-26T04:10:18.072Z,980.11
2018-11-26T04:11:18.062Z,980.09
2018-11-26T04:12:18.056Z,980.07
2018-11-26T04:13:18.051Z,980.08
2018-11-26T04:14:18.042Z,980.07
2018-11-26T04:15:18.029Z,980.07
2018-11-26T04:16:18.022Z,980.08
2018-11-26T04:17:18.014Z,980.08
2018-11-26T04:18:18.006Z,980.12
2018-11-26T04:19:18.004Z,980.06
2018-11-26T04:20:17.987Z,980.07
2018-11-26T04:21:17.994Z,980.12
2018-11-26T04:22:17.971Z,980.1
2018-11-26T04:23:17.963Z,980.11
2018-11-26T04:24:17.957Z,980.06
2018-11-26T04:25:17.949Z,980.09
2018-11-26T04:26:17.938Z,980.04
2018-11-26T04:27:17.930Z,980.05
2018-11-26T04:28:17.925Z,980.04
2018-11-26T04:29:17.916Z,980
2018-11-26T04:30:17.911Z,980
2018-11-26T04:31:17.902Z,979.98
2018-11-26T04:32:17.891Z,979.99
2018-11-26T04:33:17.882Z,979.98
2018-11-26T04:34:17.875Z,979.98
2018-11-26T04:35:17.866Z,979.99
2018-11-26T04:36:17.876Z,980.04
2018-11-26T04:37:17.851Z,980.02
2018-11-26T04:38:17.842Z,980
2018-11-26T04:39:17.833Z,980.02
2018-11-26T04:40:17.826Z,980.04
2018-11-26T04:41:17.821Z,980.05
2018-11-26T04:42:17.810Z,980.02
2018-11-26T04:43:17.800Z,980
2018-11-26T04:44:17.794Z,980
2018-11-26T04:45:17.786Z,979.97
2018-11-26T04:46:17.776Z,979.98
2018-11-26T04:47:17.780Z,979.96
2018-11-26T04:48:17.761Z,979.95
2018-11-26T04:49:17.750Z,979.99
2018-11-26T04:50:17.743Z,979.97
2018-11-26T04:51:17.742Z,980.01
2018-11-26T04:52:17.727Z,979.96
2018-11-26T04:53:17.731Z,979.98
2018-11-26T04:54:17.712Z,979.98
2018-11-26T04:55:17.700Z,980.02
2018-11-26T04:56:17.693Z,980
2018-11-26T04:57:17.684Z,980.02
2018-11-26T04:58:17.684Z,980.05
2018-11-26T04:59:17.668Z,980.06
2018-11-26T05:00:17.670Z,980.03
2018-11-26T05:01:17.650Z,980.03
2018-11-26T05:02:17.645Z,980.01
2018-11-26T05:03:17.635Z,980.02
2018-11-26T05:04:17.624Z,980.05
2018-11-26T05:05:17.618Z,980.07
2018-11-26T05:06:17.613Z,980.03
2018-11-26T05:07:17.602Z,980.07
2018-11-26T05:08:17.593Z,980.04
2018-11-26T05:09:17.588Z,980.08
2018-11-26T05:10:17.579Z,980.04
2018-11-26T05:11:17.597Z,980.1
2018-11-26T05:12:17.561Z,980.09
2018-11-26T05:13:17.556Z,980.1
2018-11-26T05:14:17.543Z,980.04
2018-11-26T05:15:17.537Z,980.03
2018-11-26T05:16:17.527Z,980.01
2018-11-26T05:17:17.525Z,979.96
2018-11-26T05:18:17.515Z,980
2018-11-26T05:19:17.503Z,979.99
2018-11-26T05:20:17.498Z,979.93
2018-11-26T05:21:17.491Z,980.01
2018-11-26T05:22:17.483Z,980
2018-11-26T05:23:17.469Z,979.98
2018-11-26T05:24:17.461Z,980
2018-11-26T05:25:17.458Z,979.99
2018-11-26T05:26:17.445Z,980.02
2018-11-26T05:27:17.438Z,979.99
2018-11-26T05:28:17.436Z,980.01
2018-11-26T05:29:17.421Z,980.03
2018-11-26T05:30:17.415Z,979.98
2018-11-26T05:31:17.405Z,980.01
2018-11-26T05:32:17.397Z,980.01
2018-11-26T05:33:17.397Z,980.02
2018-11-26T05:34:17.383Z,979.98
2018-11-26T05:35:17.374Z,979.99
2018-11-26T05:36:17.366Z,980.02
2018-11-26T05:37:17.355Z,980.07
2018-11-26T05:38:17.350Z,980.03
2018-11-26T05:39:17.342Z,980.05
2018-11-26T05:40:17.334Z,980.07
2018-11-26T05:41:17.337Z,980.05
2018-11-26T05:42:17.313Z,980.09
2018-11-26T05:43:17.307Z,980.04
2018-11-26T05:44:17.299Z,980.04
2018-11-26T05:45:17.294Z,980.05
2018-11-26T05:46:17.282Z,980.06
2018-11-26T05:47:17.281Z,980.03
2018-11-26T05:48:17.266Z,980.02
2018-11-26T05:49:17.259Z,980.02
2018-11-26T05:50:17.251Z,980.09
2018-11-26T05:51:17.247Z,980.06
2018-11-26T05:52:17.249Z,980.06
2018-11-26T05:53:17.231Z,980.03
2018-11-26T05:54:17.223Z,980.04
2018-11-26T05:55:17.213Z,980.05
2018-11-26T05:56:17.203Z,980.05
2018-11-26T05:57:17.200Z,980.07
2018-11-26T05:58:17.188Z,980.04
2018-11-26T05:59:17.179Z,980.02
2018-11-26T06:00:17.173Z,980.03
2018-11-26T06:01:17.162Z,979.99
2018-11-26T06:02:17.150Z,980.03
2018-11-26T06:03:17.149Z,980.03
2018-11-26T06:04:17.137Z,980
2018-11-26T06:05:17.131Z,979.98
2018-11-26T06:06:17.117Z,980.01
2018-11-26T06:07:17.119Z,979.99
2018-11-26T06:08:17.101Z,979.98
2018-11-26T06:09:17.095Z,980
2018-11-26T06:10:17.089Z,980.02
2018-11-26T06:11:17.077Z,979.99
2018-11-26T06:12:17.069Z,979.99
2018-11-26T06:13:17.064Z,980.03
2018-11-26T06:14:17.052Z,979.99
2018-11-26T06:15:17.056Z,980.05
2018-11-26T06:16:17.040Z,980.02
2018-11-26T06:17:17.030Z,980.02
2018-11-26T06:18:17.029Z,980
2018-11-26T06:19:17.011Z,980.02
2018-11-26T06:20:17.004Z,980.04
2018-11-26T06:21:16.996Z,980.06
2018-11-26T06:22:16.988Z,980.03
2018-11-26T06:23:16.978Z,980.05
2018-11-26T06:24:16.972Z,980.04
2018-11-26T06:25:16.964Z,980.05
2018-11-26T06:26:16.953Z,980.04
2018-11-26T06:27:16.946Z,980.04
2018-11-26T06:28:16.947Z,980.07
2018-11-26T06:29:16.931Z,980.03
2018-11-26T06:30:16.929Z,980.1
2018-11-26T06:31:16.917Z,980.09
2018-11-26T06:32:16.905Z,980.05
2018-11-26T06:33:16.900Z,980.12
2018-11-26T06:34:16.891Z,980.11
2018-11-26T06:35:16.881Z,980.12
2018-11-26T06:36:16.874Z,980.1
2018-11-26T06:37:16.867Z,980.1
2018-11-26T06:38:16.856Z,980.13
2018-11-26T06:39:16.849Z,980.07
2018-11-26T06:40:16.842Z,980.1
2018-11-26T06:41:16.832Z,980.18
2018-11-26T06:42:16.839Z,980.13
2018-11-26T06:43:17.417Z,980.18
2018-11-26T06:44:16.810Z,980.18
2018-11-26T06:45:16.805Z,980.15
2018-11-26T06:46:16.792Z,980.13
2018-11-26T06:47:16.786Z,980.11
2018-11-26T06:48:16.787Z,980.12
2018-11-26T06:49:16.791Z,980.12
2018-11-26T06:50:16.764Z,980.13
2018-11-26T06:51:16.754Z,980.14
2018-11-26T06:52:16.749Z,980.16
2018-11-26T06:53:16.735Z,980.16
2018-11-26T06:54:16.729Z,980.16
2018-11-26T06:55:16.731Z,980.15
2018-11-26T06:56:16.712Z,980.18
2018-11-26T06:57:16.732Z,980.17
2018-11-26T06:58:16.703Z,980.2
2018-11-26T06:59:16.688Z,980.21
2018-11-26T07:00:16.681Z,980.2
2018-11-26T07:01:16.673Z,980.2
2018-11-26T07:02:16.663Z,980.2
2018-11-26T07:03:16.655Z,980.18
2018-11-26T07:04:16.647Z,980.24
2018-11-26T07:05:16.640Z,980.2
2018-11-26T07:06:16.631Z,980.2
2018-11-26T07:07:16.634Z,980.22
2018-11-26T07:08:16.615Z,980.26
2018-11-26T07:09:16.615Z,980.24
2018-11-26T07:10:16.611Z,980.25
2018-11-26T07:11:16.590Z,980.26
2018-11-26T07:12:16.583Z,980.29
2018-11-26T07:13:16.584Z,980.31
2018-11-26T07:14:16.566Z,980.27
2018-11-26T07:15:16.610Z,980.3
2018-11-26T07:16:16.555Z,980.31
2018-11-26T07:17:16.542Z,980.32
2018-11-26T07:18:16.551Z,980.32
2018-11-26T07:19:16.527Z,980.37
2018-11-26T07:20:16.517Z,980.33
2018-11-26T07:21:16.514Z,980.39
2018-11-26T07:22:16.520Z,980.36
2018-11-26T07:23:16.498Z,980.39
2018-11-26T07:24:16.485Z,980.39
2018-11-26T07:25:16.481Z,980.37
2018-11-26T07:26:16.469Z,980.39
2018-11-26T07:27:16.467Z,980.39
2018-11-26T07:28:16.453Z,980.42
2018-11-26T07:29:19.752Z,980.38
2018-11-26T07:30:16.445Z,980.41
2018-11-26T07:31:16.433Z,980.41
2018-11-26T07:32:16.432Z,980.38
2018-11-26T07:33:16.435Z,980.4
2018-11-26T07:34:16.408Z,980.42
2018-11-26T07:35:16.401Z,980.46
2018-11-26T07:36:16.397Z,980.43
2018-11-26T07:37:16.385Z,980.45
2018-11-26T07:38:16.384Z,980.46
2018-11-26T07:39:16.382Z,980.49
2018-11-26T07:40:16.376Z,980.49
2018-11-26T07:41:16.354Z,980.48
2018-11-26T07:42:16.357Z,980.52
2018-11-26T07:43:16.338Z,980.53
2018-11-26T07:44:16.333Z,980.57
2018-11-26T07:45:16.336Z,980.55
2018-11-26T07:46:16.321Z,980.62
2018-11-26T07:47:16.313Z,980.6
2018-11-26T07:48:16.301Z,980.67
2018-11-26T07:49:16.288Z,980.71
2018-11-26T07:50:16.282Z,980.67
2018-11-26T07:51:16.274Z,980.69
2018-11-26T07:52:16.264Z,980.66
2018-11-26T07:53:16.259Z,980.65
2018-11-26T07:54:16.260Z,980.66
2018-11-26T07:55:16.241Z,980.67
2018-11-26T07:56:16.236Z,980.7
2018-11-26T07:57:16.226Z,980.67
2018-11-26T07:58:16.218Z,980.68
2018-11-26T07:59:16.215Z,980.67
2018-11-26T08:00:16.202Z,980.62
2018-11-26T08:01:16.199Z,980.64
2018-11-26T08:02:16.192Z,980.66
2018-11-26T08:03:16.179Z,980.69
2018-11-26T08:04:16.170Z,980.68
2018-11-26T08:05:16.164Z,980.65
2018-11-26T08:06:16.157Z,980.68
2018-11-26T08:07:16.145Z,980.69
2018-11-26T08:08:16.139Z,980.66
2018-11-26T08:09:16.129Z,980.68
2018-11-26T08:10:16.125Z,980.69
2018-11-26T08:11:16.118Z,980.69
2018-11-26T08:12:16.117Z,980.75
2018-11-26T08:13:16.106Z,980.72
2018-11-26T08:14:16.092Z,980.75
2018-11-26T08:15:16.087Z,980.73
2018-11-26T08:16:16.077Z,980.74
2018-11-26T08:17:16.070Z,980.77
2018-11-26T08:18:16.060Z,980.77
2018-11-26T08:19:16.053Z,980.78
2018-11-26T08:20:16.043Z,980.79
2018-11-26T08:21:16.036Z,980.83
2018-11-26T08:22:16.028Z,980.76
2018-11-26T08:23:16.020Z,980.78
2018-11-26T08:24:16.026Z,980.8
2018-11-26T08:25:16.005Z,980.85
2018-11-26T08:26:15.996Z,980.82
2018-11-26T08:27:15.990Z,980.82
2018-11-26T08:28:16.002Z,980.81
2018-11-26T08:29:16.015Z,980.85
2018-11-26T08:30:15.978Z,980.84
2018-11-26T08:31:15.963Z,980.83
2018-11-26T08:32:15.955Z,980.83
2018-11-26T08:33:15.957Z,980.84
2018-11-26T08:34:15.952Z,980.84
2018-11-26T08:35:15.949Z,980.87
2018-11-26T08:36:15.925Z,980.84
2018-11-26T08:37:15.924Z,980.89
2018-11-26T08:38:15.905Z,980.91
2018-11-26T08:39:15.900Z,980.85
2018-11-26T08:40:15.902Z,980.86
2018-11-26T08:41:15.895Z,980.87
2018-11-26T08:42:15.894Z,980.9
2018-11-26T08:43:15.867Z,980.91
2018-11-26T08:44:15.859Z,980.89
2018-11-26T08:45:15.849Z,980.88
2018-11-26T08:46:15.847Z,980.88
2018-11-26T08:47:15.842Z,980.89
2018-11-26T08:48:15.827Z,980.95
2018-11-26T08:49:15.817Z,980.92
2018-11-26T08:50:15.810Z,980.96
2018-11-26T08:51:15.803Z,980.97
2018-11-26T08:52:15.794Z,980.96
2018-11-26T08:53:15.789Z,980.99
2018-11-26T08:54:15.789Z,980.97
2018-11-26T08:55:15.772Z,981
2018-11-26T08:56:15.997Z,981.02
2018-11-26T08:57:15.755Z,981.01
2018-11-26T08:58:15.748Z,981.02
2018-11-26T08:59:15.739Z,981
2018-11-26T09:00:15.933Z,981.02
2018-11-26T09:01:15.726Z,981.06
2018-11-26T09:02:15.714Z,981.07
2018-11-26T09:03:15.722Z,981.07
2018-11-26T09:04:15.700Z,981.06
2018-11-26T09:05:15.691Z,981.1
2018-11-26T09:06:15.686Z,981.11
2018-11-26T09:07:15.677Z,981.12
2018-11-26T09:08:15.673Z,981.11
2018-11-26T09:09:15.665Z,981.11
2018-11-26T09:10:15.653Z,981.14
2018-11-26T09:11:15.646Z,981.13
2018-11-26T09:12:15.636Z,981.17
2018-11-26T09:13:15.638Z,981.17
2018-11-26T09:14:15.620Z,981.16
2018-11-26T09:15:15.618Z,981.19
2018-11-26T09:16:15.612Z,981.22
2018-11-26T09:17:15.597Z,981.16
2018-11-26T09:18:15.592Z,981.14
2018-11-26T09:19:15.586Z,981.21
2018-11-26T09:20:15.642Z,981.22
2018-11-26T09:21:15.569Z,981.21
2018-11-26T09:22:15.558Z,981.2
2018-11-26T09:23:15.549Z,981.21
2018-11-26T09:24:15.542Z,981.27
2018-11-26T09:25:15.536Z,981.23
2018-11-26T09:26:15.529Z,981.25
2018-11-26T09:27:15.533Z,981.26
2018-11-26T09:28:15.514Z,981.26
2018-11-26T09:29:15.501Z,981.29
2018-11-26T09:30:15.501Z,981.29
2018-11-26T09:31:15.488Z,981.3
2018-11-26T09:32:15.484Z,981.3
2018-11-26T09:33:15.473Z,981.28
2018-11-26T09:34:15.466Z,981.33
2018-11-26T09:35:15.510Z,981.31
2018-11-26T09:36:15.447Z,981.32
2018-11-26T09:37:15.442Z,981.31
2018-11-26T09:38:15.436Z,981.37
2018-11-26T09:39:15.428Z,981.32
2018-11-26T09:40:15.418Z,981.39
2018-11-26T09:41:15.416Z,981.34
2018-11-26T09:42:15.403Z,981.35
2018-11-26T09:43:15.405Z,981.37
2018-11-26T09:44:15.416Z,981.36
2018-11-26T09:45:15.380Z,981.37
2018-11-26T09:46:15.371Z,981.33
2018-11-26T09:47:15.363Z,981.34
2018-11-26T09:48:15.357Z,981.34
2018-11-26T09:49:15.352Z,981.37
2018-11-26T09:50:15.350Z,981.37
2018-11-26T09:51:15.361Z,981.36
2018-11-26T09:52:15.342Z,981.39
2018-11-26T09:53:15.318Z,981.37
2018-11-26T09:54:15.313Z,981.41
2018-11-26T09:55:15.307Z,981.34
2018-11-26T09:56:15.296Z,981.38
2018-11-26T09:57:15.292Z,981.39
2018-11-26T09:58:15.286Z,981.39
2018-11-26T09:59:15.270Z,981.34
2018-11-26T10:00:15.264Z,981.36
2018-11-26T10:01:15.252Z,981.31
2018-11-26T10:02:15.267Z,981.32
2018-11-26T10:03:15.238Z,981.31
2018-11-26T10:04:15.232Z,981.28
2018-11-26T10:05:15.224Z,981.27
2018-11-26T10:06:15.225Z,981.26
2018-11-26T10:07:15.208Z,981.29
2018-11-26T10:08:15.200Z,981.3
2018-11-26T10:09:15.192Z,981.33
2018-11-26T10:10:15.185Z,981.33
2018-11-26T10:11:15.180Z,981.28
2018-11-26T10:12:15.171Z,981.26
2018-11-26T10:13:15.163Z,981.27
2018-11-26T10:14:15.154Z,981.24
2018-11-26T10:15:15.147Z,981.23
2018-11-26T10:16:15.140Z,981.2
2018-11-26T10:17:15.132Z,981.22
2018-11-26T10:18:15.125Z,981.21
2018-11-26T10:19:15.117Z,981.17
2018-11-26T10:20:15.111Z,981.21
2018-11-26T10:21:15.102Z,981.17
2018-11-26T10:22:15.094Z,981.15
2018-11-26T10:23:15.095Z,981.17
2018-11-26T10:24:15.080Z,981.16
2018-11-26T10:25:15.073Z,981.18
2018-11-26T10:26:15.080Z,981.2
2018-11-26T10:27:15.062Z,981.12
2018-11-26T10:28:15.050Z,981.13
2018-11-26T10:29:15.046Z,981.21
2018-11-26T10:30:15.044Z,981.2
2018-11-26T10:31:15.028Z,981.22
2018-11-26T10:32:15.023Z,981.23
2018-11-26T10:33:15.184Z,981.24
2018-11-26T10:34:15.005Z,981.16
2018-11-26T10:35:14.999Z,981.2
2018-11-26T10:36:14.991Z,981.2
2018-11-26T10:37:14.989Z,981.14
2018-11-26T10:38:14.975Z,981.21
2018-11-26T10:39:14.998Z,981.14
2018-11-26T10:40:14.962Z,981.18
2018-11-26T10:41:14.952Z,981.13
2018-11-26T10:42:14.948Z,981.18
2018-11-26T10:43:14.939Z,981.14
2018-11-26T10:44:14.947Z,981.15
2018-11-26T10:45:14.926Z,981.12
2018-11-26T10:46:14.931Z,981.16
2018-11-26T10:47:14.908Z,981.19
2018-11-26T10:48:14.906Z,981.17
2018-11-26T10:49:14.898Z,981.2
2018-11-26T10:50:15.119Z,981.2
2018-11-26T10:51:14.880Z,981.18
2018-11-26T10:52:14.879Z,981.18
2018-11-26T10:53:14.865Z,981.25
2018-11-26T10:54:14.857Z,981.2
2018-11-26T10:55:14.853Z,981.22
2018-11-26T10:56:14.861Z,981.22
2018-11-26T10:57:14.840Z,981.22
2018-11-26T10:58:14.827Z,981.24
2018-11-26T10:59:14.818Z,981.26
2018-11-26T11:00:14.811Z,981.28
2018-11-26T11:01:14.813Z,981.25
2018-11-26T11:02:14.796Z,981.36
2018-11-26T11:03:14.790Z,981.27
2018-11-26T11:04:14.781Z,981.32
2018-11-26T11:05:14.775Z,981.35
2018-11-26T11:06:14.769Z,981.32
2018-11-26T11:07:14.766Z,981.29
2018-11-26T11:08:14.750Z,981.31
2018-11-26T11:09:14.742Z,981.32
2018-11-26T11:10:14.737Z,981.3
2018-11-26T11:11:14.726Z,981.3
2018-11-26T11:12:14.725Z,981.26
2018-11-26T11:13:14.714Z,981.32
2018-11-26T11:14:14.704Z,981.28
2018-11-26T11:15:14.695Z,981.25
2018-11-26T11:16:14.690Z,981.23
2018-11-26T11:17:14.686Z,981.25
2018-11-26T11:18:14.672Z,981.27
2018-11-26T11:19:14.669Z,981.23
2018-11-26T11:20:14.656Z,981.22
2018-11-26T11:21:14.658Z,981.21
2018-11-26T11:22:14.651Z,981.19
2018-11-26T11:23:14.634Z,981.17
2018-11-26T11:24:14.624Z,981.17
2018-11-26T11:25:14.625Z,981.17
2018-11-26T11:26:14.620Z,981.18
2018-11-26T11:27:14.602Z,981.15
2018-11-26T11:28:14.598Z,981.18
2018-11-26T11:29:14.591Z,981.18
2018-11-26T11:30:14.584Z,981.16
2018-11-26T11:31:14.578Z,981.1
2018-11-26T11:32:14.563Z,981.15
2018-11-26T11:34:14.549Z,981.11
2018-11-26T11:35:14.563Z,981.15
2018-11-26T11:36:14.530Z,981.14
2018-11-26T11:37:14.524Z,981.12
2018-11-26T11:38:14.513Z,981.13
2018-11-26T11:39:14.507Z,981.14
2018-11-26T11:40:14.497Z,981.12
2018-11-26T11:41:14.492Z,981.11
2018-11-26T11:42:14.486Z,981.15
2018-11-26T11:43:14.485Z,981.15
2018-11-26T11:44:14.467Z,981.14
2018-11-26T11:45:14.459Z,981.17
2018-11-26T11:46:14.449Z,981.17
2018-11-26T11:47:14.471Z,981.18
2018-11-26T11:48:14.435Z,981.16
2018-11-26T11:49:14.425Z,981.13
2018-11-26T11:50:14.424Z,981.14
2018-11-26T11:51:14.409Z,981.15
2018-11-26T11:52:14.401Z,981.16
2018-11-26T11:53:14.391Z,981.18
2018-11-26T11:54:14.385Z,981.18
2018-11-26T11:55:14.382Z,981.21
2018-11-26T11:56:14.370Z,981.19
2018-11-26T11:57:14.359Z,981.18
2018-11-26T11:58:14.351Z,981.22
2018-11-26T11:59:14.343Z,981.15
2018-11-26T12:00:14.335Z,981.19
2018-11-26T12:01:14.326Z,981.19
2018-11-26T12:02:16.006Z,981.21
2018-11-26T12:03:14.318Z,981.23
2018-11-26T12:04:14.309Z,981.2
2018-11-26T12:05:14.298Z,981.2
2018-11-26T12:06:14.292Z,981.26
2018-11-26T12:07:14.284Z,981.25
2018-11-26T12:08:14.272Z,981.25
2018-11-26T12:09:14.262Z,981.25
2018-11-26T12:10:14.257Z,981.32
2018-11-26T12:11:14.248Z,981.3
2018-11-26T12:12:14.241Z,981.3
2018-11-26T12:13:14.238Z,981.34
2018-11-26T12:14:14.224Z,981.35
2018-11-26T12:15:14.218Z,981.38
2018-11-26T12:16:14.210Z,981.37
2018-11-26T12:17:14.199Z,981.38
2018-11-26T12:18:14.192Z,981.37
2018-11-26T12:19:14.182Z,981.41
2018-11-26T12:20:14.177Z,981.45
2018-11-26T12:21:14.168Z,981.41
2018-11-26T12:22:14.169Z,981.43
2018-11-26T12:23:14.365Z,981.35
2018-11-26T12:24:14.142Z,981.38
2018-11-26T12:25:14.136Z,981.39
2018-11-26T12:26:14.125Z,981.4
2018-11-26T12:27:14.117Z,981.4
2018-11-26T12:28:14.113Z,981.34
2018-11-26T12:29:14.100Z,981.39
2018-11-26T12:30:14.097Z,981.42
2018-11-26T12:31:14.090Z,981.37
2018-11-26T12:32:14.079Z,981.44
2018-11-26T12:33:14.070Z,981.41